createdAt,value
2023-05-04T00:02:06.749Z,99.26
2023-05-04T00:04:53.148Z,99.90
2023-05-04T00:07:38.523Z,98.99
2023-05-04T00:10:22.617Z,98.96
2023-05-04T00:13:06.928Z,99.94
2023-05-04T00:15:50.978Z,100.00
2023-05-04T00:18:34.858Z,99.69
2023-05-04T00:21:18.608Z,100.00
2023-05-04T00:24:03.866Z,100.00
2023-05-04T00:26:47.627Z,100.00
2023-05-04T00:29:31.734Z,100.00
2023-05-04T00:32:15.568Z,100.00
2023-05-04T00:35:00.773Z,100.00
2023-05-04T00:37:46.085Z,100.00
2023-05-04T00:40:31.509Z,100.00
2023-05-04T00:43:15.306Z,100.00
2023-05-04T00:45:59.171Z,100.00
2023-05-04T00:48:43.972Z,100.00
2023-05-04T00:51:30.092Z,100.00
2023-05-04T00:54:15.676Z,100.00
2023-05-04T00:57:02.203Z,100.00
2023-05-04T00:59:47.859Z,99.43
2023-05-04T01:02:31.827Z,99.09
2023-05-04T01:05:15.728Z,97.37
2023-05-04T01:08:05.433Z,97.86
2023-05-04T01:10:55.771Z,96.97
2023-05-04T01:13:41.900Z,97.08
2023-05-04T01:16:25.805Z,97.09
2023-05-04T01:19:09.708Z,95.96
2023-05-04T01:21:54.970Z,95.34
2023-05-04T01:24:39.261Z,96.59
2023-05-04T01:27:27.634Z,96.13
2023-05-04T01:30:20.239Z,95.89
2023-05-04T01:33:05.741Z,93.77
2023-05-04T01:35:50.915Z,93.58
2023-05-04T01:38:36.148Z,94.96
2023-05-04T01:41:19.997Z,95.86
2023-05-04T01:44:04.316Z,96.71
2023-05-04T01:46:48.260Z,96.41
2023-05-04T01:49:32.573Z,95.86
2023-05-04T01:52:16.419Z,95.46
2023-05-04T01:55:02.747Z,94.35
2023-05-04T01:57:46.730Z,95.46
2023-05-04T02:00:30.824Z,95.81
2023-05-04T02:03:17.763Z,97.76
2023-05-04T02:06:01.722Z,97.85
2023-05-04T02:08:46.325Z,97.42
2023-05-04T02:11:31.728Z,97.48
2023-05-04T02:14:15.352Z,96.64
2023-05-04T02:16:59.288Z,96.78
2023-05-04T02:19:43.104Z,96.65
2023-05-04T02:22:27.101Z,95.68
2023-05-04T02:25:11.478Z,95.13
2023-05-04T02:27:56.965Z,94.79
2023-05-04T02:30:42.542Z,93.86
2023-05-04T02:33:26.447Z,92.76
2023-05-04T02:36:10.704Z,92.52
2023-05-04T02:38:56.110Z,92.80
2023-05-04T02:41:40.007Z,93.75
2023-05-04T02:44:25.316Z,93.74
2023-05-04T02:47:09.654Z,93.97
2023-05-04T02:49:53.551Z,93.31
2023-05-04T02:52:37.372Z,93.68
2023-05-04T02:55:21.293Z,92.73
2023-05-04T02:58:05.023Z,92.87
2023-05-04T03:00:55.483Z,94.25
2023-05-04T03:03:39.292Z,93.88
2023-05-04T03:06:23.173Z,93.12
2023-05-04T03:09:07.103Z,94.21
2023-05-04T03:11:51.038Z,95.50
2023-05-04T03:14:35.007Z,95.23
2023-05-04T03:17:20.258Z,94.93
2023-05-04T03:20:04.605Z,94.89
2023-05-04T03:22:50.126Z,94.59
2023-05-04T03:25:34.520Z,95.03
2023-05-04T03:28:18.961Z,95.05
2023-05-04T03:31:03.312Z,94.42
2023-05-04T03:33:48.653Z,93.49
2023-05-04T03:36:32.831Z,94.20
2023-05-04T03:39:17.178Z,94.06
2023-05-04T03:42:02.777Z,93.02
2023-05-04T03:44:46.649Z,93.65
2023-05-04T03:47:30.575Z,93.69
2023-05-04T03:50:16.180Z,93.62
2023-05-04T03:53:00.079Z,93.60
2023-05-04T03:55:45.290Z,92.40
2023-05-04T03:58:29.247Z,91.79
2023-05-04T04:01:16.172Z,91.81
2023-05-04T04:04:01.164Z,91.90
2023-05-04T04:06:46.630Z,91.34
2023-05-04T04:09:30.611Z,91.53
2023-05-04T04:12:16.201Z,91.37
2023-05-04T04:15:00.143Z,90.74
2023-05-04T04:17:44.215Z,91.28
2023-05-04T04:20:27.981Z,92.58
2023-05-04T04:23:13.357Z,91.95
2023-05-04T04:25:57.324Z,92.26
2023-05-04T04:28:41.465Z,91.13
2023-05-04T04:31:25.390Z,93.71
2023-05-04T04:34:09.370Z,95.30
2023-05-04T04:36:53.232Z,94.90
2023-05-04T04:39:38.514Z,94.40
2023-05-04T04:42:22.502Z,95.00
2023-05-04T04:45:07.662Z,94.50
2023-05-04T04:47:52.347Z,96.38
2023-05-04T04:50:39.774Z,95.48
2023-05-04T04:53:23.742Z,97.07
2023-05-04T04:56:09.910Z,95.67
2023-05-04T04:58:53.758Z,94.19
2023-05-04T05:01:37.702Z,93.52
2023-05-04T05:04:22.561Z,91.74
2023-05-04T05:07:08.488Z,91.26
2023-05-04T05:09:52.303Z,91.28
2023-05-04T05:12:37.619Z,92.58
2023-05-04T05:15:21.511Z,98.43
2023-05-04T05:18:05.746Z,100.00
2023-05-04T05:20:49.774Z,100.00
2023-05-04T05:23:33.588Z,100.00
2023-05-04T05:26:17.474Z,100.00
2023-05-04T05:29:02.784Z,100.00
2023-05-04T05:31:46.823Z,100.00
2023-05-04T05:34:30.717Z,100.00
2023-05-04T05:37:14.690Z,100.00
2023-05-04T05:39:58.573Z,100.00
2023-05-04T05:42:42.921Z,100.00
2023-05-04T05:45:28.150Z,100.00
2023-05-04T05:48:12.084Z,100.00
2023-05-04T05:50:56.022Z,100.00
2023-05-04T05:53:39.955Z,100.00
2023-05-04T05:56:23.872Z,100.00
2023-05-04T05:59:07.798Z,100.00
2023-05-04T06:01:53.107Z,100.00
2023-05-04T06:04:37.138Z,99.09
2023-05-04T06:07:22.050Z,100.00
2023-05-04T06:10:06.819Z,100.00
2023-05-04T06:12:51.213Z,100.00
2023-05-04T06:15:36.718Z,100.00
2023-05-04T06:18:22.344Z,100.00
2023-05-04T06:21:06.315Z,100.00
2023-05-04T06:23:50.107Z,100.00
2023-05-04T06:26:34.154Z,100.00
2023-05-04T06:29:18.045Z,100.00
2023-05-04T06:32:03.403Z,100.00
2023-05-04T06:34:49.094Z,98.61
2023-05-04T06:37:33.184Z,98.11
2023-05-04T06:40:17.150Z,99.38
2023-05-04T06:43:01.383Z,99.94
2023-05-04T06:45:45.894Z,100.00
2023-05-04T06:48:29.987Z,100.00
2023-05-04T06:51:16.265Z,100.00
2023-05-04T06:54:01.985Z,100.00
2023-05-04T06:56:46.356Z,99.48
2023-05-04T06:59:30.417Z,97.20
2023-05-04T07:02:14.387Z,98.57
2023-05-04T07:04:59.136Z,100.00
2023-05-04T07:07:44.723Z,99.02
2023-05-04T07:10:28.997Z,99.07
2023-05-04T07:13:13.544Z,98.24
2023-05-04T07:15:57.664Z,94.96
2023-05-04T07:18:41.645Z,87.37
2023-05-04T07:21:28.927Z,83.08
2023-05-04T07:24:14.838Z,85.20
2023-05-04T07:26:58.785Z,84.60
2023-05-04T07:29:44.287Z,88.66
2023-05-04T07:32:28.239Z,83.39
2023-05-04T07:35:12.270Z,83.76
2023-05-04T07:37:56.337Z,85.25
2023-05-04T07:40:41.767Z,81.63
2023-05-04T07:43:26.156Z,87.02
2023-05-04T07:46:10.476Z,91.68
2023-05-04T07:48:54.918Z,92.22
2023-05-04T07:51:39.719Z,98.42
2023-05-04T07:54:24.150Z,94.18
2023-05-04T07:57:09.817Z,93.48
2023-05-04T07:59:56.281Z,91.41
2023-05-04T08:02:41.018Z,89.80
2023-05-04T08:05:25.780Z,91.91
2023-05-04T08:08:10.160Z,87.06
2023-05-04T08:11:01.982Z,86.50
2023-05-04T08:13:54.031Z,84.71
2023-05-04T08:16:39.925Z,85.23
2023-05-04T08:19:23.968Z,86.21
2023-05-04T08:22:09.114Z,86.14
2023-05-04T08:24:53.316Z,84.91
2023-05-04T08:27:37.679Z,85.53
2023-05-04T08:30:23.544Z,83.11
2023-05-04T08:33:08.734Z,83.54
2023-05-04T08:35:53.083Z,83.59
2023-05-04T08:38:37.734Z,83.30
2023-05-04T08:41:22.280Z,81.85
2023-05-04T08:44:08.643Z,82.74
2023-05-04T08:46:55.331Z,79.96
2023-05-04T08:49:39.757Z,76.35
2023-05-04T08:52:24.760Z,79.54
2023-05-04T08:55:12.866Z,80.85
2023-05-04T08:57:57.208Z,78.22
2023-05-04T09:00:44.330Z,79.99
2023-05-04T09:03:31.429Z,77.91
2023-05-04T09:06:16.260Z,79.40
2023-05-04T09:09:00.167Z,80.38
2023-05-04T09:11:45.471Z,81.65
2023-05-04T09:14:34.699Z,76.76
2023-05-04T09:17:25.783Z,79.23
2023-05-04T09:20:13.491Z,81.25
2023-05-04T09:23:07.438Z,80.59
2023-05-04T09:25:53.417Z,78.46
2023-05-04T09:28:39.796Z,78.25
2023-05-04T09:31:24.456Z,77.70
2023-05-04T09:34:11.180Z,76.75
2023-05-04T09:37:03.856Z,76.57
2023-05-04T09:39:52.797Z,76.43
2023-05-04T09:42:37.310Z,76.60
2023-05-04T09:45:21.700Z,75.63
2023-05-04T09:48:17.449Z,77.34
2023-05-04T09:51:06.286Z,78.87
2023-05-04T09:53:52.615Z,75.87
2023-05-04T09:56:42.922Z,76.83
2023-05-04T09:59:31.724Z,79.54
2023-05-04T10:02:22.615Z,75.26
2023-05-04T10:05:09.436Z,75.02
2023-05-04T10:07:53.972Z,78.01
2023-05-04T10:10:40.833Z,77.61
2023-05-04T10:13:25.121Z,77.69
2023-05-04T10:16:19.512Z,77.16
2023-05-04T10:19:33.053Z,75.48
2023-05-04T10:22:39.895Z,72.67
2023-05-04T10:25:44.457Z,73.13
2023-05-04T10:28:46.802Z,71.63
2023-05-04T10:31:39.537Z,70.91
2023-05-04T10:34:27.790Z,70.92
2023-05-04T10:37:18.332Z,69.24
2023-05-04T10:40:02.281Z,70.37
2023-05-04T10:42:47.498Z,71.11
2023-05-04T10:45:40.901Z,71.24
2023-05-04T10:48:34.867Z,71.67
2023-05-04T10:51:20.860Z,71.98
2023-05-04T10:54:05.535Z,71.60
2023-05-04T10:56:49.584Z,69.58
2023-05-04T10:59:36.014Z,71.39
2023-05-04T11:02:25.522Z,71.12
2023-05-04T11:05:16.098Z,72.58
2023-05-04T11:08:00.546Z,70.48
2023-05-04T11:10:45.070Z,70.11
2023-05-04T11:13:31.160Z,70.25
2023-05-04T11:16:15.914Z,71.68
2023-05-04T11:19:12.547Z,71.54
2023-05-04T11:21:56.744Z,70.55
2023-05-04T11:24:44.148Z,70.03
2023-05-04T11:27:29.552Z,68.98
2023-05-04T11:30:14.224Z,70.55
2023-05-04T11:33:00.446Z,68.98
2023-05-04T11:35:46.740Z,69.77
2023-05-04T11:38:31.392Z,70.90
2023-05-04T11:41:15.508Z,71.50
2023-05-04T11:44:02.156Z,69.19
2023-05-04T11:46:47.955Z,70.88
2023-05-04T11:49:32.600Z,69.38
2023-05-04T11:52:18.008Z,68.40
2023-05-04T11:55:03.144Z,69.21
2023-05-04T11:57:57.890Z,68.06
2023-05-04T12:00:44.152Z,66.43
2023-05-04T12:03:35.867Z,65.72
2023-05-04T12:06:33.717Z,66.88
2023-05-04T12:09:19.327Z,66.19
2023-05-04T12:12:03.297Z,69.31
2023-05-04T12:14:52.058Z,68.91
2023-05-04T12:17:43.661Z,67.76
2023-05-04T12:20:29.439Z,65.73
2023-05-04T12:23:13.928Z,65.04
2023-05-04T12:25:59.425Z,65.82
2023-05-04T12:28:44.461Z,65.71
2023-05-04T12:31:28.939Z,64.87
2023-05-04T12:34:12.855Z,62.95
2023-05-04T12:36:56.744Z,63.68
2023-05-04T12:39:40.726Z,64.13
2023-05-04T12:42:26.209Z,62.84
2023-05-04T12:45:11.278Z,64.34
2023-05-04T12:47:55.234Z,64.43
2023-05-04T12:50:39.205Z,66.31
2023-05-04T12:53:25.965Z,65.37
2023-05-04T12:56:10.044Z,63.81
2023-05-04T12:58:55.553Z,67.54
2023-05-04T13:01:41.642Z,65.46
2023-05-04T13:04:26.183Z,64.52
2023-05-04T13:07:10.147Z,64.99
2023-05-04T13:09:53.992Z,64.71
2023-05-04T13:12:38.678Z,63.32
2023-05-04T13:15:24.588Z,63.91
2023-05-04T13:18:08.619Z,66.40
2023-05-04T13:20:53.989Z,66.85
2023-05-04T13:23:38.143Z,63.85
2023-05-04T13:26:22.193Z,66.48
2023-05-04T13:29:06.376Z,64.81
2023-05-04T13:31:52.009Z,67.32
2023-05-04T13:34:35.963Z,65.48
2023-05-04T13:37:19.855Z,62.60
2023-05-04T13:40:04.103Z,63.27
2023-05-04T13:42:48.458Z,64.49
2023-05-04T13:45:32.850Z,65.12
2023-05-04T13:48:18.399Z,65.04
2023-05-04T13:51:04.066Z,66.63
2023-05-04T13:53:48.041Z,70.05
2023-05-04T13:56:32.022Z,68.50
2023-05-04T13:59:16.090Z,68.80
2023-05-04T14:02:00.359Z,69.11
2023-05-04T14:04:45.737Z,66.76
2023-05-04T14:07:30.108Z,66.12
2023-05-04T14:10:14.183Z,66.25
2023-05-04T14:12:58.441Z,66.99
2023-05-04T14:15:42.838Z,66.82
2023-05-04T14:18:28.138Z,65.91
2023-05-04T14:21:13.566Z,65.42
2023-05-04T14:23:57.626Z,64.99
2023-05-04T14:26:41.634Z,66.03
2023-05-04T14:29:25.702Z,66.59
2023-05-04T14:32:09.918Z,66.08
2023-05-04T14:34:54.082Z,65.92
2023-05-04T14:37:40.935Z,67.09
2023-05-04T14:40:25.145Z,66.60
2023-05-04T14:43:09.181Z,68.50
2023-05-04T14:45:53.481Z,70.23
2023-05-04T14:48:40.240Z,71.45
2023-05-04T14:51:26.494Z,69.49
2023-05-04T14:54:11.841Z,69.40
2023-05-04T14:56:55.913Z,71.19
2023-05-04T14:59:40.148Z,69.18
2023-05-04T15:02:26.999Z,72.57
2023-05-04T15:05:12.880Z,71.13
2023-05-04T15:07:56.856Z,69.98
2023-05-04T15:10:42.221Z,70.56
2023-05-04T15:13:26.474Z,69.48
2023-05-04T15:16:10.411Z,69.13
2023-05-04T15:18:54.586Z,69.10
2023-05-04T15:21:38.700Z,69.49
2023-05-04T15:24:22.708Z,69.77
2023-05-04T15:27:09.035Z,69.24
2023-05-04T15:29:53.027Z,71.07
2023-05-04T15:32:37.020Z,69.51
2023-05-04T15:35:21.311Z,68.85
2023-05-04T15:38:05.521Z,70.06
2023-05-04T15:40:49.528Z,70.02
2023-05-04T15:43:35.262Z,67.97
2023-05-04T15:46:19.628Z,69.21
2023-05-04T15:49:03.686Z,68.14
2023-05-04T15:51:47.801Z,69.58
2023-05-04T15:54:31.892Z,71.56
2023-05-04T15:57:16.343Z,72.47
2023-05-04T16:00:02.950Z,69.87
2023-05-04T16:02:52.241Z,68.21
2023-05-04T16:05:37.083Z,66.73
2023-05-04T16:08:23.453Z,66.80
2023-05-04T16:11:08.157Z,67.47
2023-05-04T16:13:52.318Z,71.09
2023-05-04T16:16:37.841Z,69.81
2023-05-04T16:19:22.785Z,67.86
2023-05-04T16:22:06.971Z,68.78
2023-05-04T16:24:51.287Z,67.26
2023-05-04T16:27:35.563Z,68.91
2023-05-04T16:30:19.950Z,67.85
2023-05-04T16:33:05.775Z,69.66
2023-05-04T16:35:49.964Z,72.35
2023-05-04T16:38:36.313Z,72.89
2023-05-04T16:41:21.980Z,72.62
2023-05-04T16:44:10.190Z,73.88
2023-05-04T16:46:54.865Z,72.52
2023-05-04T16:49:40.267Z,75.96
2023-05-04T16:52:24.379Z,76.00
2023-05-04T16:55:13.090Z,77.28
2023-05-04T16:57:58.034Z,78.95
2023-05-04T17:00:42.905Z,78.76
2023-05-04T17:03:27.492Z,79.24
2023-05-04T17:06:13.058Z,79.45
2023-05-04T17:09:01.141Z,79.33
2023-05-04T17:11:45.706Z,79.83
2023-05-04T17:14:29.880Z,80.31
2023-05-04T17:17:13.967Z,81.14
2023-05-04T17:20:01.716Z,82.69
2023-05-04T17:22:51.055Z,81.77
2023-05-04T17:25:37.102Z,84.43
2023-05-04T17:28:21.365Z,84.72
2023-05-04T17:31:05.450Z,82.92
2023-05-04T17:33:50.821Z,82.34
2023-05-04T17:36:39.911Z,81.78
2023-05-04T17:39:28.171Z,82.92
2023-05-04T17:42:12.789Z,83.57
2023-05-04T17:45:02.642Z,83.46
2023-05-04T17:47:55.272Z,84.20
2023-05-04T17:50:40.518Z,83.42
2023-05-04T17:53:25.136Z,84.72
2023-05-04T17:56:13.656Z,86.39
2023-05-04T17:58:57.908Z,84.48
2023-05-04T18:01:42.250Z,86.28
2023-05-04T18:04:26.540Z,88.48
2023-05-04T18:07:13.793Z,86.70
2023-05-04T18:09:58.090Z,86.84
2023-05-04T18:12:46.633Z,88.97
2023-05-04T18:15:33.951Z,87.14
2023-05-04T18:18:20.544Z,87.37
2023-05-04T18:21:08.601Z,87.34
2023-05-04T18:23:54.570Z,88.73
2023-05-04T18:26:38.911Z,90.25
2023-05-04T18:29:36.219Z,89.99
2023-05-04T18:32:20.261Z,90.84
2023-05-04T18:35:10.593Z,92.05
2023-05-04T18:37:54.763Z,93.26
2023-05-04T18:40:38.924Z,93.63
2023-05-04T18:43:24.019Z,93.79
2023-05-04T18:46:09.958Z,91.45
2023-05-04T18:49:09.388Z,91.17
2023-05-04T18:51:57.172Z,90.71
2023-05-04T18:54:45.565Z,90.57
2023-05-04T18:57:30.201Z,89.27
2023-05-04T19:00:15.397Z,88.48
2023-05-04T19:03:01.924Z,89.15
2023-05-04T19:05:54.700Z,88.62
2023-05-04T19:08:49.410Z,87.78
2023-05-04T19:11:34.652Z,87.81
2023-05-04T19:14:18.833Z,87.35
2023-05-04T19:17:04.753Z,89.54
2023-05-04T19:19:50.651Z,88.29
2023-05-04T19:22:34.989Z,90.43
2023-05-04T19:25:33.334Z,90.76
2023-05-04T19:28:21.101Z,89.02
2023-05-04T19:31:06.860Z,89.57
2023-05-04T19:33:52.595Z,88.58
2023-05-04T19:36:37.994Z,89.00
2023-05-04T19:39:25.245Z,88.74
2023-05-04T19:42:10.984Z,88.77
2023-05-04T19:44:55.208Z,89.74
2023-05-04T19:47:42.330Z,89.64
2023-05-04T19:50:26.651Z,91.54
2023-05-04T19:53:14.993Z,93.44
2023-05-04T19:56:00.909Z,90.27
2023-05-04T19:58:47.914Z,90.37
2023-05-04T20:01:31.971Z,93.09
2023-05-04T20:04:16.367Z,91.45
2023-05-04T20:07:00.584Z,92.50
2023-05-04T20:09:46.052Z,90.96
2023-05-04T20:12:32.734Z,91.83
2023-05-04T20:15:17.798Z,90.61
2023-05-04T20:18:01.944Z,92.56
2023-05-04T20:20:48.999Z,91.38
2023-05-04T20:23:41.036Z,91.24
2023-05-04T20:26:31.330Z,90.59
2023-05-04T20:29:15.399Z,91.10
2023-05-04T20:32:01.700Z,93.39
2023-05-04T20:34:51.565Z,92.33
2023-05-04T20:37:44.492Z,91.51
2023-05-04T20:40:42.423Z,92.23
2023-05-04T20:43:36.819Z,91.13
2023-05-04T20:46:23.763Z,90.69
2023-05-04T20:49:09.293Z,90.50
2023-05-04T20:51:53.342Z,89.48
2023-05-04T20:54:39.145Z,90.01
2023-05-04T20:57:28.369Z,90.17
2023-05-04T21:00:16.474Z,89.44
2023-05-04T21:03:00.691Z,89.75
2023-05-04T21:05:44.845Z,89.03
2023-05-04T21:08:28.983Z,88.08
2023-05-04T21:11:13.034Z,88.18
2023-05-04T21:13:57.232Z,88.78
2023-05-04T21:16:48.662Z,88.65
2023-05-04T21:19:33.074Z,90.14
2023-05-04T21:22:19.344Z,89.84
2023-05-04T21:25:04.322Z,90.37
2023-05-04T21:27:48.482Z,90.13
2023-05-04T21:30:32.601Z,89.40
2023-05-04T21:33:18.172Z,89.93
2023-05-04T21:36:12.277Z,92.18
2023-05-04T21:38:57.679Z,93.17
2023-05-04T21:41:41.830Z,91.24
2023-05-04T21:44:29.041Z,90.48
2023-05-04T21:47:17.195Z,90.15
2023-05-04T21:50:05.348Z,91.20
2023-05-04T21:52:49.626Z,91.56
2023-05-04T21:55:33.647Z,92.34
2023-05-04T21:58:17.971Z,91.91
2023-05-04T22:01:02.013Z,92.20
2023-05-04T22:03:48.104Z,92.64
2023-05-04T22:06:33.611Z,92.59
2023-05-04T22:09:17.805Z,91.75
2023-05-04T22:12:02.466Z,90.48
2023-05-04T22:14:46.575Z,92.19
2023-05-04T22:17:30.713Z,92.38
2023-05-04T22:20:15.027Z,92.15
2023-05-04T22:23:00.457Z,92.00
2023-05-04T22:25:44.518Z,93.64
2023-05-04T22:28:28.547Z,92.93
2023-05-04T22:31:12.895Z,92.97
2023-05-04T22:33:56.978Z,93.08
2023-05-04T22:36:43.827Z,92.30
2023-05-04T22:39:29.437Z,92.40
2023-05-04T22:42:13.411Z,92.99
2023-05-04T22:44:57.544Z,92.47
2023-05-04T22:47:41.600Z,92.48
2023-05-04T22:50:25.667Z,90.87
2023-05-04T22:53:09.809Z,93.34
2023-05-04T22:55:54.940Z,92.57
2023-05-04T22:58:38.726Z,92.48
2023-05-04T23:01:22.594Z,92.02
2023-05-04T23:04:07.871Z,91.61
2023-05-04T23:06:51.638Z,92.31
2023-05-04T23:09:42.669Z,91.75
2023-05-04T23:12:28.433Z,91.12
2023-05-04T23:15:12.702Z,91.65
2023-05-04T23:17:56.478Z,91.58
2023-05-04T23:20:40.334Z,90.09
2023-05-04T23:23:24.056Z,89.13
2023-05-04T23:26:07.750Z,90.13
2023-05-04T23:28:52.844Z,89.17
2023-05-04T23:31:36.619Z,87.75
2023-05-04T23:34:20.615Z,89.30
2023-05-04T23:37:04.381Z,91.39
2023-05-04T23:39:48.250Z,90.90
2023-05-04T23:42:31.882Z,90.91
2023-05-04T23:45:17.293Z,92.85
2023-05-04T23:48:01.365Z,92.28
2023-05-04T23:50:53.347Z,96.74
2023-05-04T23:53:37.100Z,94.10
2023-05-04T23:56:20.861Z,93.67
2023-05-04T23:59:05.022Z,94.02
